Suceava, Romania
Current Conditions -  °F | °C
As of 8:00 AM on Wednesday 22 Oct 2014 (Local Time) from LRSV Reporting Station
Moderate Fog Moderate Fog  
Wind Chill: 43°   Ceiling: 100
Heat Index: 43°   Visibility: 0.12mi
Dew Point: 43°   Wind: 2mph
Humidity: 100%   Direction: 200°SSW
Pressure: 29.71"   Gusts: NA
Location:  47.65°N, 26.26°E
Report Text: LRSV 220500Z 20002KT 0200 R34/0225N FG VV001 06/06 Q1006
Loading
Personal Weather Stations






























Interactive Weather Map
Tropical Storm Tracking
New forecast layout! Learn more

10-Day Weather Forecast

Advertisements
Track Severe Weather on mobile